Time;durP1;ratioP1;P1;durP2;ratioP2;P2;SDS_P1;SDS_P2;PMS_P1;PMS_P2;Temp;Humidity;BMP_temperature;BMP_pressure;BME280_temperature;BME280_humidity;BME280_pressure;Samples;Min_cycle;Max_cycle;Signal;HPM_P1;HPM_P2
2023/03/03 00:01:05;;;;;;;48.30;25.20;;;;;;;7.53;100.00;100594.19;4979248;28;20042;-86
2023/03/03 00:03:31;;;;;;;44.17;25.95;;;;;;;7.55;100.00;100589.63;4961624;28;20043;-85
2023/03/03 00:05:57;;;;;;;47.00;25.80;;;;;;;7.65;100.00;100586.97;4979570;28;20089;-88
2023/03/03 00:08:23;;;;;;;49.05;26.83;;;;;;;7.37;100.00;100587.81;4979095;28;20026;-88
2023/03/03 00:10:48;;;;;;;46.03;26.15;;;;;;;7.68;100.00;100591.94;4962458;28;20042;-86
2023/03/03 00:13:42;;;;;;;44.72;25.98;;;;;;;7.42;100.00;100589.06;4979615;28;20425;-86
2023/03/03 00:16:48;;;;;;;42.45;25.35;;;;;;;7.60;100.00;100590.00;4970585;28;20498;-86
2023/03/03 00:19:16;;;;;;;48.20;26.02;;;;;;;7.76;100.00;100587.63;4877518;29;20064;-87
2023/03/03 00:21:45;;;;;;;46.33;25.10;;;;;;;7.81;100.00;100581.91;4903972;29;20039;-86
2023/03/03 00:24:13;;;;;;;48.08;24.88;;;;;;;7.89;100.00;100581.22;4919770;29;20052;-86
2023/03/03 00:26:45;;;;;;;44.65;26.35;;;;;;;7.58;100.00;100591.13;4920978;29;20116;-88
2023/03/03 00:29:26;;;;;;;41.05;24.10;;;;;;;7.48;100.00;100583.22;4933223;28;20055;-87
2023/03/03 00:31:54;;;;;;;50.20;27.40;;;;;;;7.20;100.00;100570.88;4980961;28;20039;-88
2023/03/03 00:34:27;;;;;;;51.00;26.88;;;;;;;6.83;100.00;100572.56;4963811;28;20486;-89
2023/03/03 00:36:56;;;;;;;43.03;25.25;;;;;;;6.56;100.00;100581.09;4963548;28;20430;-87
2023/03/03 00:39:34;;;;;;;44.97;26.10;;;;;;;6.56;100.00;100570.56;4962646;28;20553;-85
2023/03/03 00:42:03;;;;;;;45.08;24.88;;;;;;;6.75;100.00;100574.06;4980167;28;20095;-85
2023/03/03 00:44:57;;;;;;;42.25;24.23;;;;;;;6.73;100.00;100565.47;4979467;28;20026;-85
2023/03/03 00:47:37;;;;;;;44.67;24.40;;;;;;;6.86;100.00;100572.28;4980749;28;20374;-91
2023/03/03 00:50:05;;;;;;;40.40;21.98;;;;;;;7.04;100.00;100565.34;4978528;28;20042;-87
2023/03/03 00:52:37;;;;;;;42.53;22.92;;;;;;;7.12;100.00;100574.25;4961430;28;20046;-86
2023/03/03 00:55:03;;;;;;;42.85;22.58;;;;;;;7.19;100.00;100570.06;4977739;28;20035;-87
2023/03/03 00:57:29;;;;;;;40.00;22.20;;;;;;;7.29;100.00;100570.88;4960999;28;20021;-86
2023/03/03 00:59:55;;;;;;;45.72;22.33;;;;;;;7.10;100.00;100559.50;4961023;28;20041;-87
2023/03/03 01:02:20;;;;;;;41.60;23.58;;;;;;;7.21;100.00;100568.13;4960626;28;20035;-87
2023/03/03 01:04:49;;;;;;;36.83;22.20;;;;;;;7.26;100.00;100565.06;4978022;28;20532;-87
2023/03/03 01:07:16;;;;;;;42.08;22.65;;;;;;;7.11;100.00;100561.19;4961132;28;20031;-86
2023/03/03 01:09:41;;;;;;;38.65;21.92;;;;;;;7.14;100.00;100566.19;4961615;28;20031;-85
2023/03/03 01:12:08;;;;;;;44.58;21.58;;;;;;;7.14;100.00;100561.75;4978182;28;20508;-86
2023/03/03 01:14:34;;;;;;;42.13;23.63;;;;;;;7.21;100.00;100562.03;4961581;28;20057;-86
2023/03/03 01:16:59;;;;;;;36.95;22.23;;;;;;;7.12;100.00;100549.69;4978218;28;20099;-85
2023/03/03 01:19:25;;;;;;;38.10;21.13;;;;;;;7.20;100.00;100547.16;4960918;28;20053;-87
2023/03/03 01:21:50;;;;;;;42.08;21.45;;;;;;;7.19;100.00;100556.06;4960085;28;20030;-84
2023/03/03 01:24:16;;;;;;;38.28;21.77;;;;;;;7.29;100.00;100555.06;4978523;28;20034;-86
2023/03/03 01:26:42;;;;;;;40.78;22.02;;;;;;;7.06;100.00;100547.63;4977756;28;20108;-87
2023/03/03 01:29:08;;;;;;;35.78;21.52;;;;;;;7.09;100.00;100549.97;4977431;28;20035;-85
2023/03/03 01:31:34;;;;;;;36.33;22.05;;;;;;;7.18;100.00;100546.50;4960049;28;20035;-86
2023/03/03 01:34:00;;;;;;;37.10;20.20;;;;;;;7.21;100.00;100549.69;4960550;28;20149;-87
2023/03/03 01:36:28;;;;;;;37.53;20.10;;;;;;;7.25;100.00;100542.31;4977897;28;20077;-86
2023/03/03 01:38:54;;;;;;;37.88;20.88;;;;;;;6.80;100.00;100535.94;4960328;28;20086;-86
2023/03/03 01:41:21;;;;;;;37.50;21.67;;;;;;;6.81;100.00;100533.16;4959654;28;20043;-85
2023/03/03 01:43:49;;;;;;;35.92;20.60;;;;;;;6.97;100.00;100532.63;4976353;28;20556;-86
2023/03/03 01:46:23;;;;;;;37.58;21.08;;;;;;;6.86;100.00;100530.13;4975353;28;20109;-85
2023/03/03 01:48:55;;;;;;;39.25;21.40;;;;;;;6.97;100.00;100522.06;4975171;28;20406;-87
2023/03/03 01:51:32;;;;;;;39.65;20.90;;;;;;;6.82;100.00;100526.09;4958026;28;20098;-84
2023/03/03 01:54:03;;;;;;;36.72;20.77;;;;;;;6.87;100.00;100516.81;4975688;28;20035;-86
2023/03/03 01:56:29;;;;;;;38.00;21.02;;;;;;;6.88;100.00;100512.38;4975549;28;20109;-86
2023/03/03 01:59:04;;;;;;;38.35;20.30;;;;;;;6.69;100.00;100511.38;4958384;28;20031;-87
2023/03/03 02:01:33;;;;;;;39.33;20.77;;;;;;;6.90;100.00;100516.53;4958188;28;20039;-85
2023/03/03 02:03:59;;;;;;;34.15;20.60;;;;;;;6.86;100.00;100506.44;4959448;28;20412;-84
2023/03/03 02:06:32;;;;;;;39.70;20.15;;;;;;;6.99;100.00;100509.63;4986383;28;20062;-82
2023/03/03 02:09:11;;;;;;;;;;;;;;;6.99;100.00;100506.97;4994416;28;20027;-83
2023/03/03 02:11:41;;;;;;;34.65;18.55;;;;;;;7.01;100.00;100502.38;4980650;28;19918;-86
2023/03/03 02:14:07;;;;;;;43.63;20.98;;;;;;;6.78;100.00;100493.09;4975467;28;20039;-85
2023/03/03 02:16:34;;;;;;;35.97;20.50;;;;;;;6.75;100.00;100494.22;4957756;28;20089;-88
2023/03/03 02:18:59;;;;;;;34.15;19.83;;;;;;;6.62;100.00;100481.31;4974937;28;20118;-86
2023/03/03 02:21:26;;;;;;;34.55;21.00;;;;;;;6.43;100.00;100491.00;4975141;28;20486;-85
2023/03/03 02:24:02;;;;;;;36.63;20.17;;;;;;;6.60;100.00;100483.25;4957463;28;20043;-86
2023/03/03 02:26:31;;;;;;;32.95;19.33;;;;;;;6.68;100.00;100485.19;4957444;28;20038;-86
2023/03/03 02:29:02;;;;;;;39.38;19.08;;;;;;;6.80;100.00;100489.34;4957806;28;20035;-86
2023/03/03 02:31:30;;;;;;;36.30;19.67;;;;;;;6.86;100.00;100491.44;4957264;28;20026;-85
2023/03/03 02:33:55;;;;;;;34.33;18.63;;;;;;;6.84;100.00;100495.19;4957457;28;20062;-85
2023/03/03 02:36:32;;;;;;;33.15;18.95;;;;;;;6.80;100.00;100494.63;4974476;28;20062;-86
2023/03/03 02:39:18;;;;;;;33.63;19.48;;;;;;;6.65;100.00;100490.75;4957455;28;20097;-85
2023/03/03 02:41:50;;;;;;;34.55;18.60;;;;;;;6.54;100.00;100483.81;4957852;28;20398;-84
2023/03/03 02:44:22;;;;;;;36.38;19.95;;;;;;;6.20;100.00;100479.84;4957617;28;20121;-86
2023/03/03 02:46:49;;;;;;;36.35;20.52;;;;;;;6.08;100.00;100475.69;4974919;28;20026;-85
2023/03/03 02:49:21;;;;;;;37.55;19.60;;;;;;;6.03;100.00;100483.16;4970145;28;20061;-86
2023/03/03 02:51:47;;;;;;;36.78;20.67;;;;;;;6.21;100.00;100481.53;4976766;28;20039;-87
2023/03/03 02:54:14;;;;;;;36.88;20.75;;;;;;;6.25;100.00;100482.94;4976640;28;20034;-86
2023/03/03 02:56:40;;;;;;;41.25;21.23;;;;;;;6.34;100.00;100482.13;4976836;28;20441;-87
2023/03/03 02:59:06;;;;;;;39.08;19.85;;;;;;;6.39;100.00;100476.44;4976217;28;20085;-85
2023/03/03 03:01:37;;;;;;;37.35;21.83;;;;;;;6.45;100.00;100479.38;4976216;28;20473;-84
2023/03/03 03:04:19;;;;;;;38.42;20.95;;;;;;;6.07;100.00;100468.75;4976200;28;20489;-87
2023/03/03 03:06:48;;;;;;;36.80;19.92;;;;;;;6.06;100.00;100462.69;4976117;28;20486;-85
2023/03/03 03:09:16;;;;;;;37.67;21.00;;;;;;;6.00;100.00;100472.91;4993521;28;20042;-88
2023/03/03 03:11:42;;;;;;;41.70;21.77;;;;;;;6.08;100.00;100471.25;4976002;28;20485;-88
2023/03/03 03:14:10;;;;;;;37.25;21.27;;;;;;;6.29;100.00;100468.53;4976015;28;20035;-85
2023/03/03 03:16:37;;;;;;;39.30;21.50;;;;;;;6.33;100.00;100471.75;4976252;28;20070;-85
2023/03/03 03:19:07;;;;;;;39.13;20.23;;;;;;;6.29;100.00;100468.53;4976297;28;20112;-84
2023/03/03 03:21:34;;;;;;;35.67;21.48;;;;;;;6.46;100.00;100473.16;4976076;28;20061;-86
2023/03/03 03:24:00;;;;;;;40.75;21.50;;;;;;;6.38;100.00;100470.34;4976099;28;20054;-86
2023/03/03 03:26:26;;;;;;;40.25;21.80;;;;;;;6.18;100.00;100463.38;4976120;28;20042;-87
2023/03/03 03:28:52;;;;;;;39.90;22.27;;;;;;;6.26;100.00;100468.81;4976054;28;20445;-85
2023/03/03 03:31:20;;;;;;;38.13;22.08;;;;;;;6.21;100.00;100466.59;4960281;28;20073;-84
2023/03/03 03:33:46;;;;;;;37.08;20.23;;;;;;;6.29;100.00;100472.97;4976231;28;20077;-86
2023/03/03 03:36:12;;;;;;;36.25;20.27;;;;;;;6.45;100.00;100468.84;4976131;28;20041;-86
2023/03/03 03:38:39;;;;;;;35.22;20.20;;;;;;;6.58;100.00;100465.94;4975801;28;20082;-85
2023/03/03 03:41:06;;;;;;;40.00;21.33;;;;;;;6.09;100.00;100466.84;4976081;28;20125;-86
2023/03/03 03:43:33;;;;;;;37.38;21.58;;;;;;;5.90;100.00;100466.78;4992991;28;20385;-87
2023/03/03 03:45:59;;;;;;;43.08;22.50;;;;;;;5.50;100.00;100459.66;4975724;28;20042;-87
2023/03/03 03:48:25;;;;;;;41.25;22.80;;;;;;;5.41;100.00;100462.22;4993299;28;20555;-87
2023/03/03 03:50:51;;;;;;;45.35;24.85;;;;;;;5.31;100.00;100463.97;4978782;28;20039;-90
2023/03/03 03:53:17;;;;;;;42.70;23.48;;;;;;;5.37;100.00;100464.28;4975952;28;20485;-86
2023/03/03 03:55:45;;;;;;;47.22;24.65;;;;;;;5.33;100.00;100462.91;4983103;28;20031;-86
2023/03/03 03:58:16;;;;;;;41.85;22.88;;;;;;;5.28;100.00;100449.31;4993666;28;20026;-85
2023/03/03 04:00:44;;;;;;;46.58;25.52;;;;;;;5.24;100.00;100465.47;4992971;28;20031;-86
2023/03/03 04:03:10;;;;;;;49.88;24.70;;;;;;;5.18;100.00;100454.50;4996710;28;20061;-87
2023/03/03 04:05:36;;;;;;;43.70;25.00;;;;;;;5.27;100.00;100452.88;4996774;28;20038;-88
2023/03/03 04:08:03;;;;;;;42.17;23.40;;;;;;;5.37;100.00;100447.72;4997276;28;20049;-86
2023/03/03 04:10:28;;;;;;;49.33;26.55;;;;;;;5.26;100.00;100446.00;5005770;28;20062;-87
2023/03/03 04:12:54;;;;;;;51.70;26.65;;;;;;;5.25;100.00;100439.06;4977125;28;20097;-88
2023/03/03 04:15:20;;;;;;;50.53;27.67;;;;;;;5.26;100.00;100445.16;4976273;28;20057;-85
2023/03/03 04:17:46;;;;;;;51.15;26.25;;;;;;;5.58;100.00;100440.59;4976614;28;20073;-85
2023/03/03 04:20:14;;;;;;;46.53;25.15;;;;;;;5.55;100.00;100441.69;4976789;28;20039;-85
2023/03/03 04:22:42;;;;;;;47.65;26.10;;;;;;;5.51;100.00;100434.19;4976805;28;20093;-85
2023/03/03 04:25:11;;;;;;;47.70;25.95;;;;;;;5.69;100.00;100443.16;4994446;28;20057;-85
2023/03/03 04:27:39;;;;;;;49.95;25.50;;;;;;;5.80;100.00;100436.97;4979329;28;20085;-90
2023/03/03 04:30:06;;;;;;;50.15;25.85;;;;;;;6.06;100.00;100440.81;4978854;28;20065;-85
2023/03/03 04:32:32;;;;;;;44.53;24.13;;;;;;;6.11;100.00;100443.84;4979061;28;20100;-85
2023/03/03 04:35:00;;;;;;;45.78;24.83;;;;;;;6.13;100.00;100441.94;4978936;28;20039;-86
2023/03/03 04:37:25;;;;;;;45.83;24.92;;;;;;;6.03;100.00;100448.97;4979360;28;20117;-87
2023/03/03 04:39:51;;;;;;;47.15;25.27;;;;;;;5.95;100.00;100439.09;4996499;28;20065;-87
2023/03/03 04:42:17;;;;;;;44.83;23.50;;;;;;;5.86;100.00;100439.91;4996485;28;20046;-88
2023/03/03 04:44:42;;;;;;;45.88;25.70;;;;;;;5.93;100.00;100432.31;4978913;28;20045;-88
2023/03/03 04:47:08;;;;;;;47.20;24.83;;;;;;;5.79;100.00;100433.50;4978749;28;20054;-86
2023/03/03 04:49:35;;;;;;;48.95;25.35;;;;;;;5.87;100.00;100435.47;4996405;28;20497;-85
2023/03/03 04:52:00;;;;;;;46.75;25.85;;;;;;;6.00;100.00;100436.09;4978921;28;20037;-88
2023/03/03 04:54:26;;;;;;;51.40;27.25;;;;;;;5.89;100.00;100433.56;4996805;28;20049;-87
2023/03/03 04:56:51;;;;;;;49.55;26.77;;;;;;;6.09;100.00;100436.09;4978683;28;20035;-85
2023/03/03 04:59:17;;;;;;;50.10;26.15;;;;;;;6.21;100.00;100431.53;4978926;28;20433;-86
2023/03/03 05:01:42;;;;;;;50.78;27.17;;;;;;;6.15;100.00;100435.56;4980629;28;20050;-86
2023/03/03 05:04:08;;;;;;;46.92;26.00;;;;;;;6.22;100.00;100433.22;4982784;28;20034;-85
2023/03/03 05:06:34;;;;;;;52.58;28.70;;;;;;;6.23;100.00;100427.78;4991928;28;20027;-84
2023/03/03 05:08:59;;;;;;;51.55;27.90;;;;;;;6.36;100.00;100432.81;5008403;28;20049;-86
2023/03/03 05:11:25;;;;;;;50.47;27.60;;;;;;;6.42;100.00;100431.44;4996207;28;20038;-88
2023/03/03 05:13:51;;;;;;;53.20;26.65;;;;;;;6.06;100.00;100432.91;4998987;28;20038;-86
2023/03/03 05:16:17;;;;;;;52.85;28.75;;;;;;;5.90;100.00;100425.50;4980856;28;20038;-86
2023/03/03 05:18:42;;;;;;;53.63;28.10;;;;;;;5.71;100.00;100433.31;4996837;28;20127;-87
2023/03/03 05:21:08;;;;;;;62.85;32.20;;;;;;;5.77;100.00;100429.34;5002602;28;20121;-86
2023/03/03 05:23:33;;;;;;;53.05;28.38;;;;;;;5.68;100.00;100425.69;5004536;28;20042;-85
2023/03/03 05:25:59;;;;;;;49.17;27.77;;;;;;;5.92;100.00;100434.13;4986353;28;20046;-85
2023/03/03 05:28:25;;;;;;;54.53;29.70;;;;;;;6.08;100.00;100428.34;5002846;28;20038;-88
2023/03/03 05:30:50;;;;;;;54.58;29.58;;;;;;;6.12;100.00;100427.09;4996766;28;20034;-85
2023/03/03 05:33:16;;;;;;;62.85;31.95;;;;;;;5.81;100.00;100420.19;4978337;28;20109;-86
2023/03/03 05:35:43;;;;;;;66.57;31.52;;;;;;;5.61;100.00;100424.56;4977881;28;20440;-85
2023/03/03 05:38:08;;;;;;;64.90;33.58;;;;;;;5.71;100.00;100422.78;4995518;28;20437;-87
2023/03/03 05:40:34;;;;;;;65.00;31.88;;;;;;;5.67;100.00;100424.84;4996131;28;20089;-87
2023/03/03 05:42:59;;;;;;;61.58;31.25;;;;;;;5.72;100.00;100432.34;4997393;28;20051;-90
2023/03/03 05:45:25;;;;;;;57.05;29.77;;;;;;;5.89;100.00;100433.56;4996828;28;20026;-88
2023/03/03 05:47:51;;;;;;;61.42;30.95;;;;;;;6.01;100.00;100432.47;4995528;28;20057;-86
2023/03/03 05:50:19;;;;;;;59.80;29.48;;;;;;;6.10;100.00;100431.66;4995648;28;20037;-88
2023/03/03 05:52:49;;;;;;;61.00;30.88;;;;;;;6.16;100.00;100436.38;4978002;28;20034;-86
2023/03/03 05:55:14;;;;;;;61.90;31.83;;;;;;;5.68;100.00;100429.16;4995174;28;20038;-86
2023/03/03 05:57:40;;;;;;;61.65;31.45;;;;;;;5.63;100.00;100428.72;4988305;28;20084;-88
2023/03/03 06:00:07;;;;;;;63.17;32.53;;;;;;;5.80;100.00;100426.44;4975268;28;20038;-86
2023/03/03 06:02:37;;;;;;;61.10;31.05;;;;;;;5.73;100.00;100419.06;4973989;28;20038;-84
2023/03/03 06:05:03;;;;;;;71.38;33.35;;;;;;;5.67;100.00;100435.38;4957976;28;20101;-84
2023/03/03 06:07:29;;;;;;;73.18;33.42;;;;;;;5.52;100.00;100426.19;4975627;28;20482;-84
2023/03/03 06:09:55;;;;;;;72.15;34.25;;;;;;;5.55;100.00;100428.56;4974746;28;20398;-89
2023/03/03 06:12:24;;;;;;;66.50;33.58;;;;;;;5.70;100.00;100429.84;4942577;28;20057;-83
2023/03/03 06:14:49;;;;;;;70.40;35.40;;;;;;;5.81;100.00;100428.91;4975442;28;20030;-85
2023/03/03 06:17:15;;;;;;;72.43;34.92;;;;;;;5.97;100.00;100431.06;4974556;28;20402;-87
2023/03/03 06:19:40;;;;;;;82.03;38.50;;;;;;;6.13;100.00;100432.22;4956812;28;20018;-91
2023/03/03 06:22:06;;;;;;;77.03;38.65;;;;;;;6.39;100.00;100432.53;4975295;28;20041;-90
2023/03/03 06:24:32;;;;;;;72.13;37.05;;;;;;;6.58;100.00;100431.72;4975154;28;20029;-87
2023/03/03 06:26:59;;;;;;;73.55;38.45;;;;;;;6.52;100.00;100435.72;4975055;28;20035;-88
2023/03/03 06:29:25;;;;;;;80.38;39.80;;;;;;;6.76;100.00;100440.59;4943340;28;20039;-86
2023/03/03 06:31:51;;;;;;;75.38;38.92;;;;;;;6.93;100.00;100436.38;4976341;28;20030;-89
2023/03/03 06:34:16;;;;;;;83.55;38.92;;;;;;;6.81;100.00;100448.03;4975889;28;20027;-91
2023/03/03 06:36:42;;;;;;;74.20;37.75;;;;;;;6.98;100.00;100449.97;4977695;28;20449;-91
2023/03/03 06:39:07;;;;;;;76.70;38.20;;;;;;;6.94;100.00;100453.84;4947346;28;20038;-90
2023/03/03 06:41:33;;;;;;;75.40;36.25;;;;;;;7.23;100.00;100454.63;4993762;28;20035;-90
2023/03/03 06:43:59;;;;;;;67.95;36.30;;;;;;;7.65;100.00;100463.00;4989328;28;20046;-89
2023/03/03 06:46:25;;;;;;;73.72;36.88;;;;;;;7.59;100.00;100463.56;4967827;28;20045;-90
2023/03/03 06:48:51;;;;;;;66.68;34.38;;;;;;;7.97;100.00;100459.91;4985664;28;20063;-89
2023/03/03 06:51:35;;;;;;;60.38;32.08;;;;;;;9.32;100.00;100465.84;4971826;28;20031;-90
2023/03/03 06:54:23;;;;;;;59.45;31.90;;;;;;;9.84;100.00;100472.75;4972355;28;20038;-91
2023/03/03 06:57:02;;;;;;;60.83;30.98;;;;;;;9.62;100.00;100473.28;5024191;23;20043;-90
2023/03/03 06:59:28;;;;;;;58.88;30.17;;;;;;;9.45;100.00;100476.00;4996130;28;20046;-91
2023/03/03 07:01:54;;;;;;;63.45;30.40;;;;;;;10.41;100.00;100491.50;4993962;28;20026;-92
2023/03/03 07:04:33;;;;;;;59.13;32.90;;;;;;;10.36;100.00;100478.78;4994749;28;20089;-89
2023/03/03 07:07:19;;;;;;;52.15;29.60;;;;;;;10.69;100.00;100489.44;4996388;28;20038;-90
2023/03/03 07:09:49;;;;;;;55.95;29.58;;;;;;;10.64;100.00;100497.84;4980037;28;20686;-89
2023/03/03 07:12:37;;;;;;;54.38;28.88;;;;;;;11.37;100.00;100506.69;4983683;28;20041;-89
2023/03/03 07:15:23;;;;;;;53.42;28.95;;;;;;;12.73;100.00;100492.22;4969316;28;20046;-90
2023/03/03 07:17:59;;;;;;;54.83;30.05;;;;;;;12.56;100.00;100502.13;4998565;28;20038;-91
2023/03/03 07:20:40;;;;;;;53.78;29.48;;;;;;;12.78;100.00;100509.31;5000200;28;20030;-90
2023/03/03 07:23:22;;;;;;;56.20;30.65;;;;;;;12.72;100.00;100504.72;4998799;28;20038;-91
2023/03/03 07:25:47;;;;;;;59.50;32.47;;;;;;;13.23;100.00;100518.31;4984803;28;20050;-90
2023/03/03 07:28:26;;;;;;;52.30;30.45;;;;;;;12.68;100.00;100521.19;4970555;28;20141;-92
2023/03/03 07:30:54;;;;;;;54.55;31.33;;;;;;;11.87;100.00;100522.38;4975932;28;20049;-88
2023/03/03 07:33:34;;;;;;;52.00;29.02;;;;;;;11.88;100.00;100521.38;4978976;28;20493;-89
2023/03/03 07:36:03;;;;;;;50.08;29.40;;;;;;;12.23;100.00;100524.59;4991944;28;20034;-88
2023/03/03 07:38:44;;;;;;;50.92;30.25;;;;;;;12.34;100.00;100526.84;4996874;28;20022;-91
2023/03/03 07:41:22;;;;;;;47.83;28.25;;;;;;;13.19;100.00;100522.38;5002511;28;20067;-91
2023/03/03 07:44:11;;;;;;;49.00;27.90;;;;;;;13.86;100.00;100532.03;5006364;28;20022;-89
2023/03/03 07:46:43;;;;;;;49.00;27.83;;;;;;;14.01;100.00;100529.38;5000210;28;20038;-89
2023/03/03 07:49:20;;;;;;;46.30;28.70;;;;;;;13.68;100.00;100522.75;4999086;28;20067;-88
2023/03/03 07:51:46;;;;;;;55.90;29.05;;;;;;;12.45;100.00;100518.50;4975565;28;20333;-90
2023/03/03 07:54:49;;;;;;;53.42;29.92;;;;;;;12.68;100.00;100530.00;4988751;28;20035;-90
2023/03/03 07:57:23;;;;;;;52.42;30.70;;;;;;;12.46;100.00;100520.16;4979175;28;20407;-89
2023/03/03 07:59:54;;;;;;;55.00;30.35;;;;;;;13.07;100.00;100529.06;5001458;28;20023;-90
2023/03/03 08:02:35;;;;;;;48.65;29.42;;;;;;;13.86;100.00;100534.69;4999903;28;20025;-85
2023/03/03 08:05:29;;;;;;;50.78;29.83;;;;;;;14.06;100.00;100534.13;4987102;28;20544;-87
2023/03/03 08:08:32;;;;;;;54.90;29.63;;;;;;;14.07;100.00;100533.97;4994035;28;20050;-89
2023/03/03 08:10:59;;;;;;;51.78;29.63;;;;;;;14.56;100.00;100541.38;4989021;28;20042;-85
2023/03/03 08:13:37;;;;;;;54.03;28.90;;;;;;;14.24;100.00;100538.09;4975940;28;20054;-87
2023/03/03 08:16:08;;;;;;;52.72;29.38;;;;;;;13.43;100.00;100541.59;5009654;28;20027;-88
2023/03/03 08:18:36;;;;;;;59.20;30.92;;;;;;;13.33;100.00;100532.19;5000586;28;20026;-88
2023/03/03 08:21:23;;;;;;;55.63;31.27;;;;;;;13.11;100.00;100538.38;4978815;28;20429;-88
2023/03/03 08:23:50;;;;;;;56.15;32.78;;;;;;;13.13;100.00;100541.69;5003038;28;20053;-90
2023/03/03 08:26:24;;;;;;;59.42;32.63;;;;;;;12.96;100.00;100539.09;4987011;28;20085;-88
2023/03/03 08:28:50;;;;;;;63.28;32.90;;;;;;;13.70;100.00;100540.19;4974282;28;20481;-88
2023/03/03 08:31:19;;;;;;;59.65;32.78;;;;;;;13.81;100.00;100542.41;4979139;28;20451;-89
2023/03/03 08:33:45;;;;;;;56.55;32.47;;;;;;;14.55;100.00;100537.06;4983531;28;20034;-89
2023/03/03 08:36:11;;;;;;;58.33;31.83;;;;;;;16.15;99.31;100547.91;4974059;28;20048;-90
2023/03/03 08:38:38;;;;;;;55.17;30.02;;;;;;;17.30;91.95;100554.91;4957487;28;20417;-90
2023/03/03 08:41:04;;;;;;;53.22;29.90;;;;;;;17.73;84.80;100550.00;5000567;28;20038;-91
2023/03/03 08:43:31;;;;;;;54.30;30.98;;;;;;;18.56;80.46;100551.88;4974067;28;20478;-91
2023/03/03 08:45:59;;;;;;;52.55;31.40;;;;;;;18.57;75.82;100556.22;4988008;28;20481;-89
2023/03/03 08:48:25;;;;;;;61.60;31.75;;;;;;;17.31;80.69;100556.56;4982925;28;20027;-90
2023/03/03 08:50:54;;;;;;;57.97;33.42;;;;;;;16.51;85.65;100548.50;4977994;28;20034;-89
2023/03/03 08:53:21;;;;;;;54.22;31.63;;;;;;;16.50;83.86;100547.69;4970963;28;20026;-89
2023/03/03 08:55:46;;;;;;;55.90;32.85;;;;;;;16.74;84.05;100543.69;4969528;28;20043;-90
2023/03/03 08:58:18;;;;;;;57.22;33.33;;;;;;;16.65;85.77;100549.41;4991851;28;20035;-93
2023/03/03 09:00:46;;;;;;;52.80;32.38;;;;;;;16.23;86.98;100547.78;4962844;28;20038;-92
2023/03/03 09:03:18;;;;;;;55.65;33.15;;;;;;;15.88;88.90;100547.75;5203245;23;20026;-92
2023/03/03 09:06:39;;;;;;;53.08;32.55;;;;;;;17.39;81.08;100555.56;5210950;23;20064;-93
2023/03/03 09:15:43;;;;;;;58.03;32.47;;;;;;;17.02;76.39;100555.09;5222087;23;20046;-92
2023/03/03 09:19:07;;;;;;;59.58;31.75;;;;;;;16.77;75.90;100548.63;5020733;28;20030;-90
2023/03/03 09:21:39;;;;;;;56.25;32.40;;;;;;;17.23;75.27;100547.91;4997135;28;20050;-93
2023/03/03 09:24:35;;;;;;;47.72;28.67;;;;;;;16.68;75.20;100559.72;5018444;28;20572;-92
2023/03/03 09:27:18;;;;;;;47.95;29.30;;;;;;;16.76;74.81;100552.34;5008045;28;20061;-95
2023/03/03 09:29:50;;;;;;;54.55;31.33;;;;;;;15.83;79.23;100558.22;4974672;28;20046;-92
2023/03/03 09:35:48;;;;;;;61.75;33.67;;;;;;;16.23;83.71;100553.13;4875990;26;20105;-92
2023/03/03 09:38:46;;;;;;;62.22;34.15;;;;;;;16.40;83.35;100552.59;4967835;28;20070;-93
2023/03/03 09:41:52;;;;;;;53.20;31.45;;;;;;;16.93;79.85;100553.63;4983370;28;20130;-93
2023/03/03 09:44:41;;;;;;;58.72;33.58;;;;;;;15.97;83.80;100551.94;4972737;28;20054;-93
2023/03/03 09:47:32;;;;;;;60.08;33.85;;;;;;;15.02;89.79;100548.88;4995023;28;20031;-93
2023/03/03 09:50:14;;;;;;;52.42;31.63;;;;;;;15.14;89.25;100551.03;4974532;28;20043;-92
2023/03/03 09:53:13;;;;;;;57.95;32.70;;;;;;;15.94;86.15;100546.97;4956646;28;20034;-93
2023/03/03 09:55:53;;;;;;;64.20;33.38;;;;;;;15.53;85.99;100556.78;4970690;28;20055;-94
2023/03/03 09:59:05;;;;;;;55.00;34.08;;;;;;;14.43;94.39;100556.22;4967945;28;20082;-92
2023/03/03 10:01:45;;;;;;;57.15;34.42;;;;;;;14.34;96.88;100551.16;4978670;28;20046;-91
2023/03/03 10:04:38;;;;;;;65.32;34.85;;;;;;;14.15;100.00;100551.72;4965074;28;20061;-93
2023/03/03 10:07:23;;;;;;;62.35;34.33;;;;;;;15.24;93.64;100556.91;4983859;28;20113;-88
2023/03/03 10:10:07;;;;;;;58.08;34.75;;;;;;;15.40;89.92;100565.47;4993555;28;20034;-89
2023/03/03 10:12:45;;;;;;;63.20;33.95;;;;;;;16.75;81.03;100558.72;4965348;28;20034;-88
2023/03/03 10:15:43;;;;;;;56.53;31.83;;;;;;;17.98;76.01;100564.41;4978884;28;20042;-90
2023/03/03 10:18:48;;;;;;;59.70;32.38;;;;;;;17.96;72.84;100565.66;4998433;28;20086;-92
2023/03/03 10:21:42;;;;;;;53.90;31.02;;;;;;;19.09;70.36;100565.84;4991942;28;20042;-88
2023/03/03 10:24:42;;;;;;;56.33;31.25;;;;;;;19.14;70.97;100572.44;4991781;28;20117;-87
2023/03/03 10:27:25;;;;;;;54.95;30.85;;;;;;;18.62;69.18;100571.69;4994544;28;20046;-88
2023/03/03 10:30:00;;;;;;;50.58;27.25;;;;;;;18.84;64.03;100570.31;4968918;28;20041;-91
2023/03/03 10:32:28;;;;;;;43.15;25.85;;;;;;;19.42;60.92;100572.91;4983465;28;20496;-86
2023/03/03 10:35:13;;;;;;;49.90;27.33;;;;;;;20.19;59.49;100575.06;4995277;28;20560;-88
2023/03/03 10:38:04;;;;;;;47.22;27.13;;;;;;;20.41;59.99;100565.56;4988940;28;20034;-89
2023/03/03 10:40:41;;;;;;;51.05;27.80;;;;;;;20.26;60.15;100580.38;4969762;28;20537;-93
2023/03/03 10:43:31;;;;;;;59.17;29.50;;;;;;;19.59;62.24;100571.28;4959218;28;20085;-90
2023/03/03 10:46:06;;;;;;;50.22;26.48;;;;;;;20.01;59.18;100583.97;4988423;28;20030;-88
2023/03/03 10:48:37;;;;;;;42.95;25.38;;;;;;;20.66;56.87;100576.22;4969591;28;20126;-88
2023/03/03 10:51:32;;;;;;;42.20;25.58;;;;;;;20.55;58.44;100571.56;4987782;28;20027;-89
2023/03/03 10:54:39;;;;;;;44.42;25.38;;;;;;;20.00;58.61;100574.25;4958333;28;20058;-89
2023/03/03 10:57:57;;;;;;;46.78;25.30;;;;;;;19.74;58.16;100573.66;4965203;28;20141;-91
2023/03/03 11:00:48;;;;;;;44.53;24.58;;;;;;;19.17;59.83;100569.31;4897007;29;20049;-88
2023/03/03 11:03:52;;;;;;;41.80;25.35;;;;;;;17.12;68.20;100572.63;4978485;28;20043;-87
2023/03/03 11:06:25;;;;;;;39.00;24.02;;;;;;;16.40;70.98;100567.81;4974682;28;20058;-89
2023/03/03 11:09:36;;;;;;;39.28;24.63;;;;;;;16.22;74.37;100563.00;4977614;28;20054;-89
2023/03/03 11:12:35;;;;;;;41.78;23.80;;;;;;;15.65;77.41;100563.22;4931014;28;20492;-89
2023/03/03 11:15:13;;;;;;;37.15;23.20;;;;;;;15.26;80.01;100558.34;4958185;28;20045;-87
2023/03/03 11:18:00;;;;;;;40.70;23.67;;;;;;;15.13;79.51;100546.72;4975126;28;20042;-87
2023/03/03 11:20:36;;;;;;;41.55;24.35;;;;;;;15.06;81.21;100551.16;4957401;28;20490;-89
2023/03/03 11:23:20;;;;;;;41.63;23.55;;;;;;;15.08;81.41;100547.28;4974379;28;20130;-90
2023/03/03 11:26:07;;;;;;;43.67;22.83;;;;;;;15.56;79.73;100548.38;4975221;28;20057;-88
2023/03/03 11:28:41;;;;;;;38.15;24.13;;;;;;;15.57;79.11;100544.69;4975075;28;20066;-90
2023/03/03 11:31:30;;;;;;;40.53;23.00;;;;;;;15.08;80.62;100538.47;4957435;28;20127;-88
2023/03/03 11:34:33;;;;;;;44.97;22.63;;;;;;;15.59;79.55;100531.94;4941180;28;20565;-87
2023/03/03 11:37:11;;;;;;;36.85;21.08;;;;;;;15.50;77.38;100527.78;4979022;28;20089;-88
2023/03/03 11:39:38;;;;;;;39.38;20.73;;;;;;;15.16;79.35;100527.66;4978835;28;20133;-87
2023/03/03 11:42:27;;;;;;;38.10;20.40;;;;;;;15.22;78.55;100530.38;4978380;28;20117;-89
2023/03/03 11:45:04;;;;;;;34.47;20.88;;;;;;;14.99;78.99;100519.06;4979320;28;20122;-88
2023/03/03 11:47:57;;;;;;;36.47;20.08;;;;;;;15.07;79.66;100520.78;4969730;28;20031;-86